createdAt,value
2023-02-15T00:00:16.990Z,3.73
2023-02-15T00:02:44.902Z,4.43
2023-02-15T00:05:12.787Z,4.40
2023-02-15T00:07:40.762Z,5.47
2023-02-15T00:10:10.415Z,5.60
2023-02-15T00:12:38.600Z,6.57
2023-02-15T00:15:07.040Z,5.70
2023-02-15T00:17:36.238Z,6.17
2023-02-15T00:20:04.407Z,5.10
2023-02-15T00:22:32.333Z,6.00
2023-02-15T00:25:00.192Z,5.93
2023-02-15T00:27:28.058Z,5.33
2023-02-15T00:29:56.733Z,5.00
2023-02-15T00:32:24.663Z,5.20
2023-02-15T00:34:54.037Z,5.20
2023-02-15T00:37:21.914Z,5.27
2023-02-15T00:39:49.777Z,4.50
2023-02-15T00:42:18.836Z,4.43
2023-02-15T00:44:46.836Z,3.70
2023-02-15T00:47:14.715Z,4.03
2023-02-15T00:49:42.915Z,4.00
2023-02-15T00:52:12.557Z,7.53
2023-02-15T00:54:40.602Z,6.00
2023-02-15T00:57:08.841Z,5.80
2023-02-15T00:59:36.705Z,7.03
2023-02-15T01:02:04.920Z,5.93
2023-02-15T01:04:33.371Z,5.87
2023-02-15T01:07:02.855Z,4.57
2023-02-15T01:09:33.340Z,4.40
2023-02-15T01:12:01.213Z,6.53
2023-02-15T01:14:29.261Z,5.93
2023-02-15T01:16:57.452Z,6.53
2023-02-15T01:19:25.338Z,6.13
2023-02-15T01:21:53.523Z,4.60
2023-02-15T01:24:21.401Z,6.53
2023-02-15T01:26:50.614Z,5.00
2023-02-15T01:29:18.485Z,5.47
2023-02-15T01:31:46.477Z,4.80
2023-02-15T01:34:16.267Z,3.93
2023-02-15T01:36:44.160Z,4.00
2023-02-15T01:39:12.323Z,3.70
2023-02-15T01:41:40.227Z,3.33
2023-02-15T01:45:01.856Z,3.10
2023-02-15T01:47:39.022Z,2.67
2023-02-15T01:50:17.132Z,2.70
2023-02-15T01:52:53.775Z,2.57
2023-02-15T01:55:25.657Z,2.30
2023-02-15T01:57:53.785Z,1.90
2023-02-15T02:00:22.615Z,2.27
2023-02-15T02:02:57.536Z,2.50
2023-02-15T02:05:27.827Z,2.07
2023-02-15T02:08:00.428Z,2.27
2023-02-15T02:10:28.820Z,1.67
2023-02-15T02:13:05.160Z,1.77
2023-02-15T02:15:44.301Z,1.70
2023-02-15T02:18:37.724Z,2.03
2023-02-15T02:21:52.324Z,1.83
2023-02-15T02:25:13.888Z,1.83
2023-02-15T02:27:49.467Z,2.00
2023-02-15T02:30:47.507Z,1.80
2023-02-15T02:33:53.588Z,2.07
2023-02-15T02:36:35.820Z,1.73
2023-02-15T02:39:21.801Z,2.03
2023-02-15T02:42:02.796Z,1.90
2023-02-15T02:44:44.806Z,1.90
2023-02-15T02:47:21.395Z,1.73
2023-02-15T02:49:59.885Z,1.47
2023-02-15T02:52:40.234Z,1.50
2023-02-15T02:55:14.956Z,1.30
2023-02-15T02:57:54.041Z,1.27
2023-02-15T03:00:25.300Z,1.40
2023-02-15T03:03:05.843Z,1.47
2023-02-15T03:05:42.356Z,1.00
2023-02-15T03:08:12.804Z,1.30
2023-02-15T03:10:43.183Z,1.00
2023-02-15T03:13:11.237Z,1.40
2023-02-15T03:16:01.593Z,1.30
2023-02-15T03:18:37.984Z,1.50
2023-02-15T03:21:22.909Z,1.73
2023-02-15T03:23:55.739Z,1.30
2023-02-15T03:26:28.835Z,1.30
2023-02-15T03:29:04.427Z,1.00
2023-02-15T03:31:38.621Z,1.10
2023-02-15T03:34:12.598Z,1.27
2023-02-15T03:36:54.180Z,1.10
2023-02-15T03:39:31.978Z,0.83
2023-02-15T03:42:10.563Z,1.00
2023-02-15T03:44:52.882Z,1.50
2023-02-15T03:47:27.729Z,1.33
2023-02-15T03:50:02.877Z,1.53
2023-02-15T03:52:33.830Z,2.10
2023-02-15T03:55:01.884Z,1.40
2023-02-15T03:57:48.941Z,1.60
2023-02-15T04:00:42.329Z,2.97
2023-02-15T04:03:24.782Z,2.97
2023-02-15T04:05:52.745Z,2.40
2023-02-15T04:08:41.987Z,2.40
2023-02-15T04:11:08.995Z,3.03
2023-02-15T04:13:36.932Z,2.87
2023-02-15T04:16:05.361Z,2.37
2023-02-15T04:18:53.922Z,2.13
2023-02-15T04:21:41.593Z,1.53
2023-02-15T04:24:29.430Z,1.90
2023-02-15T04:26:57.799Z,1.70
2023-02-15T04:29:27.740Z,2.23
2023-02-15T04:32:01.527Z,2.20
2023-02-15T04:34:29.788Z,2.70
2023-02-15T04:36:57.716Z,3.17
2023-02-15T04:39:26.924Z,2.83
2023-02-15T04:41:54.846Z,2.77
2023-02-15T04:44:22.728Z,2.43
2023-02-15T04:46:50.599Z,1.40
2023-02-15T04:49:18.487Z,1.40
2023-02-15T04:51:46.366Z,1.13
2023-02-15T04:54:14.298Z,1.20
2023-02-15T04:56:44.436Z,1.20
2023-02-15T04:59:12.930Z,2.27
2023-02-15T05:01:40.849Z,2.37
2023-02-15T05:04:08.823Z,2.13
2023-02-15T05:06:37.199Z,2.73
2023-02-15T05:09:05.745Z,2.60
2023-02-15T05:11:33.888Z,1.93
2023-02-15T05:14:03.192Z,1.80
2023-02-15T05:16:31.157Z,1.57
2023-02-15T05:18:59.473Z,1.93
2023-02-15T05:21:27.633Z,2.07
2023-02-15T05:23:55.625Z,1.83
2023-02-15T05:26:44.111Z,1.57
2023-02-15T05:29:16.117Z,1.43
2023-02-15T05:31:48.157Z,1.67
2023-02-15T05:34:18.942Z,1.60
2023-02-15T05:36:46.795Z,1.90
2023-02-15T05:39:14.674Z,1.80
2023-02-15T05:41:42.528Z,1.40
2023-02-15T05:44:10.409Z,1.70
2023-02-15T05:46:39.596Z,1.70
2023-02-15T05:49:07.566Z,1.80
2023-02-15T05:51:35.441Z,1.37
2023-02-15T05:54:03.321Z,1.60
2023-02-15T05:56:31.178Z,1.13
2023-02-15T05:58:59.344Z,1.70
2023-02-15T06:01:27.561Z,2.10
2023-02-15T06:03:57.172Z,1.93
2023-02-15T06:06:25.080Z,2.20
2023-02-15T06:08:52.959Z,2.50
2023-02-15T06:11:20.860Z,2.10
2023-02-15T06:13:48.803Z,1.73
2023-02-15T06:16:17.159Z,1.40
2023-02-15T06:18:45.347Z,1.60
2023-02-15T06:21:15.148Z,2.63
2023-02-15T06:23:44.074Z,1.90
2023-02-15T06:26:11.935Z,1.87
2023-02-15T06:28:39.832Z,1.63
2023-02-15T06:31:07.858Z,1.17
2023-02-15T06:33:35.837Z,1.00
2023-02-15T06:36:04.776Z,1.70
2023-02-15T06:38:34.625Z,1.43
2023-02-15T06:41:02.622Z,1.07
2023-02-15T06:43:30.609Z,2.33
2023-02-15T06:45:58.603Z,2.00
2023-02-15T06:48:26.524Z,1.80
2023-02-15T06:50:54.482Z,1.60
2023-02-15T06:53:22.410Z,1.20
2023-02-15T06:55:51.623Z,1.20
2023-02-15T06:58:19.519Z,1.80
2023-02-15T07:00:47.484Z,1.60
2023-02-15T07:03:16.464Z,1.30
2023-02-15T07:05:44.599Z,1.00
2023-02-15T07:08:12.507Z,1.00
2023-02-15T07:10:40.424Z,1.17
2023-02-15T07:13:08.841Z,1.37
2023-02-15T07:15:36.731Z,1.50
2023-02-15T07:18:06.079Z,1.67
2023-02-15T07:20:36.105Z,1.73
2023-02-15T07:23:05.844Z,2.37
2023-02-15T07:25:33.789Z,2.23
2023-02-15T07:28:04.785Z,2.20
2023-02-15T07:30:34.569Z,2.47
2023-02-15T07:33:19.935Z,1.33
2023-02-15T07:35:52.378Z,1.87
2023-02-15T07:38:20.983Z,2.50
2023-02-15T07:40:49.248Z,3.70
2023-02-15T07:43:17.458Z,2.53
2023-02-15T07:45:46.690Z,1.23
2023-02-15T07:48:14.564Z,1.80
2023-02-15T07:50:42.454Z,1.70
2023-02-15T07:53:10.724Z,1.97
2023-02-15T07:55:38.637Z,2.30
2023-02-15T07:58:06.566Z,2.40
2023-02-15T08:00:54.444Z,6.10
2023-02-15T08:03:27.603Z,2.30
2023-02-15T08:06:00.346Z,2.10
2023-02-15T08:08:32.154Z,2.10
2023-02-15T08:11:19.890Z,2.40
2023-02-15T08:13:55.400Z,2.20
2023-02-15T08:16:25.915Z,2.60
2023-02-15T08:18:55.831Z,1.93
2023-02-15T08:21:25.105Z,1.80
2023-02-15T08:23:53.974Z,1.57
2023-02-15T08:26:21.924Z,1.60
2023-02-15T08:28:51.075Z,1.50
2023-02-15T08:31:19.780Z,1.80
2023-02-15T08:33:49.891Z,1.40
2023-02-15T08:36:21.736Z,2.20
2023-02-15T08:38:50.232Z,3.87
2023-02-15T08:41:21.446Z,3.17
2023-02-15T08:43:54.585Z,2.53
2023-02-15T08:46:24.440Z,2.77
2023-02-15T08:48:52.891Z,2.43
2023-02-15T08:51:25.364Z,2.30
2023-02-15T08:53:56.948Z,3.40
2023-02-15T08:56:28.581Z,11.20
2023-02-15T08:58:57.326Z,3.97
2023-02-15T09:01:27.896Z,3.00
2023-02-15T09:03:59.538Z,4.00
2023-02-15T09:06:31.006Z,4.50
2023-02-15T09:08:59.334Z,3.83
2023-02-15T09:11:30.581Z,3.07
2023-02-15T09:14:01.512Z,3.80
2023-02-15T09:16:32.563Z,2.73
2023-02-15T09:19:02.155Z,2.03
2023-02-15T09:21:31.457Z,1.70
2023-02-15T09:24:02.033Z,1.33
2023-02-15T09:26:32.619Z,1.23
2023-02-15T09:29:04.351Z,1.10
2023-02-15T09:31:35.516Z,0.90
2023-02-15T09:34:03.668Z,1.00
2023-02-15T09:36:35.820Z,0.80
2023-02-15T09:39:10.184Z,1.10
2023-02-15T09:42:32.886Z,1.37
2023-02-15T09:45:22.621Z,1.00
2023-02-15T09:48:28.524Z,1.10
2023-02-15T09:51:34.162Z,1.43
2023-02-15T09:54:24.568Z,1.33
2023-02-15T09:57:02.500Z,1.10
2023-02-15T09:59:43.730Z,1.20
2023-02-15T10:02:36.854Z,1.20
2023-02-15T10:05:23.990Z,1.10
2023-02-15T10:08:23.049Z,0.90
2023-02-15T10:11:24.565Z,3.43
2023-02-15T10:14:12.877Z,3.30
2023-02-15T10:16:53.285Z,3.60
2023-02-15T10:19:37.462Z,3.07
2023-02-15T10:22:23.960Z,3.20
2023-02-15T10:25:18.060Z,3.63
2023-02-15T10:27:51.301Z,3.73
2023-02-15T10:30:32.522Z,3.60
2023-02-15T10:33:03.937Z,3.40
2023-02-15T10:35:49.265Z,3.47
2023-02-15T10:38:33.588Z,3.70
2023-02-15T10:41:17.675Z,3.07
2023-02-15T10:44:07.898Z,3.20
2023-02-15T10:46:57.814Z,4.30
2023-02-15T10:50:03.772Z,2.70
2023-02-15T10:52:52.407Z,22.23
2023-02-15T10:55:43.033Z,3.67
2023-02-15T10:58:26.618Z,2.87
2023-02-15T11:01:09.934Z,3.17
2023-02-15T11:04:07.514Z,3.93
2023-02-15T11:06:42.997Z,3.20
2023-02-15T11:09:16.515Z,3.10
2023-02-15T11:11:52.159Z,2.47
2023-02-15T11:14:30.117Z,3.30
2023-02-15T11:17:09.245Z,3.70
2023-02-15T11:19:44.728Z,2.30
2023-02-15T11:22:13.736Z,2.90
2023-02-15T11:24:47.192Z,2.50
2023-02-15T11:27:23.388Z,2.60
2023-02-15T11:30:01.470Z,2.50
2023-02-15T11:32:35.765Z,2.50
2023-02-15T11:35:19.830Z,2.13
2023-02-15T11:37:52.479Z,3.13
2023-02-15T11:40:26.237Z,2.53
2023-02-15T11:42:58.583Z,3.00
2023-02-15T11:45:31.666Z,3.50
2023-02-15T11:48:03.268Z,2.97
2023-02-15T11:50:34.686Z,4.10
2023-02-15T11:53:08.074Z,3.40
2023-02-15T11:55:36.269Z,3.33
2023-02-15T11:58:16.820Z,4.10
2023-02-15T12:00:48.822Z,4.73
2023-02-15T12:03:29.275Z,4.10
2023-02-15T12:06:04.341Z,5.57
2023-02-15T12:08:40.799Z,5.93
2023-02-15T12:11:13.787Z,6.50
2023-02-15T12:13:58.146Z,7.20
2023-02-15T12:16:28.349Z,6.03
2023-02-15T12:19:01.254Z,6.40
2023-02-15T12:21:35.300Z,6.87
2023-02-15T12:24:17.258Z,6.73
2023-02-15T12:26:46.139Z,6.60
2023-02-15T12:29:21.626Z,5.70
2023-02-15T12:31:53.902Z,6.00
2023-02-15T12:34:27.525Z,5.60
2023-02-15T12:37:01.220Z,5.17
2023-02-15T12:39:31.440Z,4.83
2023-02-15T12:42:05.560Z,6.10
2023-02-15T12:44:35.468Z,5.57
2023-02-15T12:47:06.720Z,5.60
2023-02-15T12:49:37.988Z,6.63
2023-02-15T12:52:24.582Z,5.63
2023-02-15T12:54:53.946Z,4.87
2023-02-15T12:57:29.155Z,4.23
2023-02-15T13:00:00.498Z,4.17
2023-02-15T13:02:37.318Z,3.57
2023-02-15T13:05:24.535Z,5.73
2023-02-15T13:07:58.129Z,3.57
2023-02-15T13:10:31.346Z,4.30
2023-02-15T13:13:00.119Z,3.97
2023-02-15T13:15:36.797Z,4.37
2023-02-15T13:18:12.311Z,4.17
2023-02-15T13:20:46.050Z,3.90
2023-02-15T13:23:28.328Z,3.53
2023-02-15T13:26:01.342Z,3.70
2023-02-15T13:28:42.865Z,3.60
2023-02-15T13:31:16.510Z,3.73
2023-02-15T13:33:50.272Z,5.60
2023-02-15T13:36:33.769Z,6.77
2023-02-15T13:39:17.364Z,5.10
2023-02-15T13:42:00.375Z,4.40
2023-02-15T13:44:54.684Z,4.33
2023-02-15T13:47:32.521Z,4.60
2023-02-15T13:50:36.609Z,4.00
2023-02-15T13:53:26.470Z,3.47
2023-02-15T13:56:00.555Z,3.23
2023-02-15T13:59:06.896Z,3.73
2023-02-15T14:01:47.456Z,4.20
2023-02-15T14:04:50.695Z,5.10
2023-02-15T14:07:58.208Z,4.60
2023-02-15T14:10:48.107Z,4.90
2023-02-15T14:13:57.848Z,5.10
2023-02-15T14:16:41.243Z,4.97
2023-02-15T14:19:26.442Z,5.20
2023-02-15T14:22:03.513Z,4.00
2023-02-15T14:24:44.190Z,4.80
2023-02-15T14:27:28.969Z,4.53
2023-02-15T14:30:01.299Z,3.80
2023-02-15T14:32:37.572Z,4.40
2023-02-15T14:35:14.434Z,5.40
2023-02-15T14:37:52.024Z,5.17
2023-02-15T14:40:54.459Z,6.50
2023-02-15T14:43:39.163Z,7.77
2023-02-15T14:46:22.120Z,7.87
2023-02-15T14:48:55.315Z,8.20
2023-02-15T14:52:01.481Z,7.73
2023-02-15T14:54:57.831Z,6.70
2023-02-15T14:57:36.238Z,5.90
2023-02-15T15:00:39.929Z,6.07
2023-02-15T15:03:22.443Z,5.90
2023-02-15T15:05:55.364Z,6.23
2023-02-15T15:08:36.263Z,6.37
2023-02-15T15:11:50.593Z,6.13
2023-02-15T15:14:45.156Z,6.03
2023-02-15T15:17:54.477Z,5.83
2023-02-15T15:20:51.671Z,6.83
2023-02-15T15:23:46.441Z,6.30
2023-02-15T15:26:30.842Z,6.30
2023-02-15T15:29:03.992Z,7.03
2023-02-15T15:31:49.915Z,6.53
2023-02-15T15:34:49.450Z,6.80
2023-02-15T15:38:06.539Z,7.13
2023-02-15T15:41:19.640Z,6.90
2023-02-15T15:44:43.153Z,6.87
2023-02-15T15:47:37.131Z,7.53
2023-02-15T15:50:15.949Z,8.07
2023-02-15T15:52:51.013Z,10.37
2023-02-15T15:55:24.860Z,10.13
2023-02-15T15:57:57.763Z,11.00
2023-02-15T16:00:37.154Z,10.93
2023-02-15T16:03:05.717Z,9.83
2023-02-15T16:05:39.265Z,8.53
2023-02-15T16:08:07.884Z,9.00
2023-02-15T16:10:38.858Z,8.83
2023-02-15T16:13:08.656Z,11.43
2023-02-15T16:15:46.352Z,12.33
2023-02-15T16:18:19.093Z,12.83
2023-02-15T16:20:56.092Z,11.83
2023-02-15T16:24:01.068Z,12.33
2023-02-15T16:26:54.499Z,11.03
2023-02-15T16:29:31.596Z,9.97
2023-02-15T16:32:06.700Z,11.20
2023-02-15T16:34:34.908Z,10.83
2023-02-15T16:37:18.848Z,12.40
2023-02-15T16:39:49.085Z,12.43
2023-02-15T16:42:18.729Z,12.80
2023-02-15T16:44:50.080Z,10.93
2023-02-15T16:47:25.560Z,9.80
2023-02-15T16:49:58.236Z,14.03
2023-02-15T16:52:30.197Z,11.53
2023-02-15T16:55:01.299Z,13.57
2023-02-15T16:57:35.262Z,22.43
2023-02-15T17:00:08.198Z,23.27
2023-02-15T17:02:55.160Z,21.33
2023-02-15T17:05:24.892Z,19.23
2023-02-15T17:08:15.660Z,21.40
2023-02-15T17:10:47.976Z,19.43
2023-02-15T17:13:18.255Z,22.53
2023-02-15T17:16:24.559Z,20.70
2023-02-15T17:18:54.718Z,20.37
2023-02-15T17:21:27.623Z,19.47
2023-02-15T17:24:01.837Z,20.23
2023-02-15T17:26:34.840Z,15.33
2023-02-15T17:29:25.969Z,14.67
2023-02-15T17:31:59.421Z,9.83
2023-02-15T17:34:58.834Z,9.37
2023-02-15T17:37:43.189Z,11.83
2023-02-15T17:40:26.599Z,12.73
2023-02-15T17:42:55.291Z,12.47
2023-02-15T17:45:26.959Z,10.10
2023-02-15T17:47:55.269Z,8.67
2023-02-15T17:50:26.913Z,8.13
2023-02-15T17:52:57.872Z,8.60
2023-02-15T17:55:35.392Z,6.40
2023-02-15T17:58:05.851Z,5.87
2023-02-15T18:00:54.661Z,6.70
2023-02-15T18:03:40.647Z,6.40
2023-02-15T18:06:26.643Z,6.00
2023-02-15T18:09:12.749Z,7.30
2023-02-15T18:11:42.434Z,7.00
2023-02-15T18:14:11.935Z,6.40
2023-02-15T18:16:45.519Z,4.77
2023-02-15T18:19:18.761Z,5.00
2023-02-15T18:21:48.080Z,4.40
2023-02-15T18:24:20.133Z,4.17
2023-02-15T18:26:49.654Z,4.30
2023-02-15T18:29:17.873Z,4.80
2023-02-15T18:31:52.399Z,5.53
2023-02-15T18:34:27.901Z,6.47
2023-02-15T18:36:56.328Z,6.97
2023-02-15T18:39:40.075Z,8.17
2023-02-15T18:42:22.449Z,12.20
2023-02-15T18:44:54.413Z,8.93
2023-02-15T18:47:22.391Z,5.57
2023-02-15T18:49:50.350Z,5.77
2023-02-15T18:52:21.765Z,4.83
2023-02-15T18:54:56.140Z,5.60
2023-02-15T18:57:25.726Z,4.43
2023-02-15T18:59:53.624Z,4.47
2023-02-15T19:02:21.563Z,4.10
2023-02-15T19:04:49.500Z,4.40
2023-02-15T19:07:22.479Z,4.43
2023-02-15T19:09:55.661Z,4.27
2023-02-15T19:12:25.399Z,4.00
2023-02-15T19:14:53.287Z,4.30
2023-02-15T19:17:23.818Z,3.73
2023-02-15T19:19:53.822Z,4.33
2023-02-15T19:22:27.765Z,4.30
2023-02-15T19:24:58.945Z,3.90
2023-02-15T19:27:32.416Z,4.43
2023-02-15T19:30:02.989Z,4.50
2023-02-15T19:32:31.398Z,4.00
2023-02-15T19:34:59.247Z,3.67
2023-02-15T19:37:35.539Z,4.30
2023-02-15T19:40:04.064Z,4.00
2023-02-15T19:42:34.658Z,4.30
2023-02-15T19:45:02.574Z,3.83
2023-02-15T19:47:30.552Z,4.70
2023-02-15T19:50:03.386Z,4.67
2023-02-15T19:52:31.303Z,4.10
2023-02-15T19:54:59.297Z,4.23
2023-02-15T19:57:27.806Z,4.20
2023-02-15T19:59:57.084Z,4.10
2023-02-15T20:02:24.939Z,4.00
2023-02-15T20:04:52.877Z,4.70
2023-02-15T20:07:27.520Z,4.60
2023-02-15T20:09:55.604Z,4.30
2023-02-15T20:12:25.963Z,4.40
2023-02-15T20:14:59.598Z,4.63
2023-02-15T20:17:27.451Z,4.70
2023-02-15T20:19:56.100Z,4.63
2023-02-15T20:22:29.046Z,4.17
2023-02-15T20:24:57.740Z,4.50
2023-02-15T20:27:26.560Z,4.20
2023-02-15T20:29:56.699Z,4.67
2023-02-15T20:32:26.825Z,4.67
2023-02-15T20:34:54.827Z,5.03
2023-02-15T20:37:28.806Z,5.03
2023-02-15T20:39:57.050Z,4.50
2023-02-15T20:42:25.003Z,4.73
2023-02-15T20:44:52.915Z,4.73
2023-02-15T20:47:20.817Z,4.90
2023-02-15T20:49:50.558Z,5.43
2023-02-15T20:52:21.511Z,4.93
2023-02-15T20:54:49.625Z,4.80
2023-02-15T20:57:17.587Z,4.73
2023-02-15T20:59:45.877Z,5.73
2023-02-15T21:02:20.451Z,5.23
2023-02-15T21:04:50.208Z,4.80
2023-02-15T21:07:20.838Z,5.33
2023-02-15T21:09:49.228Z,5.70
2023-02-15T21:12:21.085Z,4.70
2023-02-15T21:14:49.054Z,4.90
2023-02-15T21:17:18.109Z,5.60
2023-02-15T21:19:46.190Z,5.50
2023-02-15T21:22:17.453Z,6.00
2023-02-15T21:24:51.381Z,5.40
2023-02-15T21:27:19.481Z,5.80
2023-02-15T21:29:47.648Z,5.60
2023-02-15T21:32:15.653Z,6.17
2023-02-15T21:34:43.583Z,5.90
2023-02-15T21:37:31.503Z,5.33
2023-02-15T21:40:00.138Z,5.87
2023-02-15T21:42:43.382Z,6.03
2023-02-15T21:45:33.558Z,6.17
2023-02-15T21:48:01.728Z,6.07
2023-02-15T21:50:47.474Z,5.97
2023-02-15T21:53:25.589Z,5.90
2023-02-15T21:55:58.256Z,5.73
2023-02-15T21:58:29.980Z,6.43
2023-02-15T22:01:00.685Z,5.77
2023-02-15T22:03:33.888Z,6.30
2023-02-15T22:06:02.184Z,6.27
2023-02-15T22:08:32.193Z,5.50
2023-02-15T22:11:00.389Z,6.17
2023-02-15T22:13:31.727Z,6.23
2023-02-15T22:16:00.346Z,6.70
2023-02-15T22:18:33.761Z,5.87
2023-02-15T22:21:04.321Z,6.33
2023-02-15T22:23:37.116Z,6.00
2023-02-15T22:26:15.339Z,5.43
2023-02-15T22:28:46.118Z,6.47
2023-02-15T22:31:19.042Z,6.43
2023-02-15T22:33:49.668Z,6.27
2023-02-15T22:36:25.123Z,6.70
2023-02-15T22:38:55.096Z,6.80
2023-02-15T22:41:28.342Z,6.50
2023-02-15T22:43:57.721Z,6.63
2023-02-15T22:46:26.944Z,6.77
2023-02-15T22:48:55.466Z,6.87
2023-02-15T22:51:25.865Z,7.03
2023-02-15T22:53:55.444Z,6.30
2023-02-15T22:56:32.284Z,5.77
2023-02-15T22:59:05.925Z,6.40
2023-02-15T23:01:38.489Z,7.07
2023-02-15T23:04:07.102Z,6.97
2023-02-15T23:06:35.372Z,6.40
2023-02-15T23:09:04.752Z,7.40
2023-02-15T23:11:32.663Z,6.80
2023-02-15T23:14:02.942Z,7.40
2023-02-15T23:16:31.761Z,8.17
2023-02-15T23:18:59.686Z,8.13
2023-02-15T23:21:31.688Z,7.70
2023-02-15T23:24:16.070Z,8.33
2023-02-15T23:26:44.120Z,8.13
2023-02-15T23:29:16.650Z,8.30
2023-02-15T23:31:48.066Z,8.20
2023-02-15T23:34:21.150Z,8.00
2023-02-15T23:36:49.125Z,8.00
2023-02-15T23:39:39.184Z,7.80
2023-02-15T23:42:12.645Z,8.10
2023-02-15T23:44:41.496Z,8.70
2023-02-15T23:47:22.031Z,8.33
2023-02-15T23:49:49.910Z,8.30
2023-02-15T23:52:17.785Z,8.77
2023-02-15T23:54:47.000Z,8.40
2023-02-15T23:57:14.922Z,7.73
2023-02-15T23:59:45.816Z,8.33
